Time;durP1;ratioP1;P1;durP2;ratioP2;P2;SDS_P1;SDS_P2;PMS_P1;PMS_P2;Temp;Humidity;BMP_temperature;BMP_pressure;BME280_temperature;BME280_humidity;BME280_pressure;Samples;Min_cycle;Max_cycle;Signal;HPM_P1;HPM_P2
2022/01/16 00:04:35;;;;;;;2.33;1.67;;;;;;;6.40;54.37;98402.47;3392622;29;20220;-72
2022/01/16 00:06:17;;;;;;;2.10;0.80;;;;;;;6.58;56.60;98404.53;3391475;29;20477;-72
2022/01/16 00:07:58;;;;;;;1.73;1.25;;;;;;;6.68;55.21;98397.00;3392145;29;20120;-72
2022/01/16 00:09:39;;;;;;;1.50;1.10;;;;;;;6.68;54.10;98402.31;3391337;29;20086;-73
2022/01/16 00:11:20;;;;;;;1.38;1.20;;;;;;;6.62;53.38;98395.19;3395919;29;20526;-72
2022/01/16 00:13:03;;;;;;;1.20;1.10;;;;;;;6.56;53.18;98401.28;3403043;29;20120;-74
2022/01/16 00:14:44;;;;;;;;;;;;;;;6.61;53.23;98408.59;3375229;29;20057;-72
2022/01/16 00:16:25;;;;;;;2.08;1.10;;;;;;;6.47;52.86;98398.00;3398018;29;20309;-72
2022/01/16 00:19:46;;;;;;;1.08;0.90;;;;;;;6.36;52.77;98395.13;3389885;29;20288;-72
2022/01/16 00:21:32;;;;;;;1.92;1.25;;;;;;;6.29;52.88;98393.25;3389979;29;20472;-72
2022/01/16 00:23:21;;;;;;;2.25;1.33;;;;;;;6.25;52.54;98383.28;3390178;29;20078;-71
2022/01/16 00:25:03;;;;;;;1.45;1.08;;;;;;;6.25;52.60;98388.59;3389692;29;20044;-74
2022/01/16 00:26:44;;;;;;;1.70;1.35;;;;;;;6.28;52.46;98390.84;3388622;29;20047;-73
2022/01/16 00:28:26;;;;;;;1.80;1.17;;;;;;;6.30;52.54;98388.81;3389624;29;20067;-72
2022/01/16 00:30:07;;;;;;;2.17;1.27;;;;;;;6.32;52.40;98395.53;3389559;29;20192;-73
2022/01/16 00:31:48;;;;;;;2.17;1.20;;;;;;;6.35;52.47;98404.91;3376024;29;20083;-73
2022/01/16 00:33:28;;;;;;;1.70;0.93;;;;;;;6.35;52.54;98404.91;3387163;29;20051;-74
2022/01/16 00:35:11;;;;;;;5.07;1.42;;;;;;;6.33;52.61;98413.03;3389763;29;20051;-72
2022/01/16 00:36:52;;;;;;;2.08;1.05;;;;;;;6.33;52.43;98406.94;3389735;29;20505;-70
2022/01/16 00:38:33;;;;;;;1.98;1.13;;;;;;;6.37;52.38;98410.78;3389932;29;20079;-71
2022/01/16 00:40:14;;;;;;;1.33;0.93;;;;;;;6.42;52.23;98415.50;3389291;29;20036;-71
2022/01/16 00:41:56;;;;;;;1.90;1.10;;;;;;;6.43;52.22;98417.09;3389052;29;20044;-71
2022/01/16 00:43:38;;;;;;;0.73;0.63;;;;;;;6.42;52.19;98416.31;3389649;29;20042;-70
2022/01/16 00:45:18;;;;;;;1.50;1.00;;;;;;;6.45;52.79;98410.59;3389952;29;20071;-72
2022/01/16 00:46:59;;;;;;;1.17;0.95;;;;;;;6.44;52.74;98414.28;3375624;29;20297;-71
2022/01/16 00:48:40;;;;;;;1.75;0.93;;;;;;;6.48;52.95;98426.09;3386889;29;20135;-72
2022/01/16 00:50:21;;;;;;;2.72;0.98;;;;;;;6.51;53.27;98425.69;3389762;29;20040;-71
2022/01/16 00:52:02;;;;;;;1.45;1.10;;;;;;;6.57;53.04;98428.56;3394150;29;20059;-72
2022/01/16 00:53:44;;;;;;;3.35;1.30;;;;;;;6.57;52.91;98417.97;3401744;29;20056;-71
2022/01/16 00:55:25;;;;;;;1.27;0.87;;;;;;;6.63;54.32;98433.06;3402656;29;20040;-72
2022/01/16 00:57:06;;;;;;;2.08;1.50;;;;;;;6.74;55.72;98425.34;3402722;29;20050;-72
2022/01/16 00:58:47;;;;;;;2.25;1.20;;;;;;;6.82;54.72;98431.47;3402201;29;20513;-72
2022/01/16 01:00:31;;;;;;;1.20;1.10;;;;;;;6.82;53.96;98437.59;3402562;29;20043;-71
2022/01/16 01:02:12;;;;;;;4.72;1.35;;;;;;;6.80;53.42;98444.09;3403114;29;20043;-71
2022/01/16 01:03:52;;;;;;;1.48;1.10;;;;;;;6.83;54.99;98455.09;3402383;29;20047;-70
2022/01/16 01:05:34;;;;;;;1.33;0.90;;;;;;;6.90;55.81;98461.22;3389937;29;20071;-72
2022/01/16 01:07:15;;;;;;;;;;;;;;;7.08;55.42;98460.63;3388986;29;20051;-71
2022/01/16 01:08:56;;;;;;;1.35;0.82;;;;;;;7.24;56.22;98471.88;3389076;29;20302;-69
2022/01/16 01:10:39;;;;;;;1.38;1.13;;;;;;;7.39;55.83;98473.28;3375419;29;20523;-71
2022/01/16 01:12:28;;;;;;;1.42;1.00;;;;;;;7.43;54.51;98463.94;3386768;29;20048;-71
2022/01/16 01:16:02;;;;;;;1.33;0.82;;;;;;;7.33;53.92;98484.72;3388970;29;20125;-71
2022/01/16 01:17:45;;;;;;;1.65;1.05;;;;;;;7.29;53.57;98485.31;3388882;29;20415;-72
2022/01/16 01:19:34;;;;;;;1.80;1.10;;;;;;;7.43;55.58;98482.47;3388818;29;20044;-71
2022/01/16 01:21:28;;;;;;;1.15;0.88;;;;;;;7.69;55.50;98486.13;3374677;29;20045;-70
2022/01/16 01:23:10;;;;;;;0.90;0.70;;;;;;;7.96;55.80;98481.59;3388384;29;20087;-71
2022/01/16 01:24:51;;;;;;;5.18;0.90;;;;;;;8.26;55.43;98481.94;3388891;29;20073;-71
2022/01/16 01:26:37;;;;;;;0.80;0.80;;;;;;;8.57;55.17;98496.34;3388947;29;20072;-71
2022/01/16 01:28:18;;;;;;;1.48;1.00;;;;;;;8.85;54.43;98481.91;3388971;29;20040;-71
2022/01/16 01:30:06;;;;;;;1.95;1.13;;;;;;;9.10;53.94;98506.69;3388826;29;20040;-71
2022/01/16 01:31:48;;;;;;;1.30;1.20;;;;;;;9.26;53.11;98501.88;3389072;29;20047;-71
2022/01/16 01:33:28;;;;;;;5.53;1.10;;;;;;;9.44;52.94;98509.13;3377127;29;20124;-71
2022/01/16 01:35:11;;;;;;;0.85;0.85;;;;;;;9.67;52.09;98508.53;3375833;29;20049;-71
2022/01/16 01:36:52;;;;;;;1.45;0.93;;;;;;;9.90;51.56;98507.91;3361972;29;20051;-71
2022/01/16 01:38:33;;;;;;;2.65;0.90;;;;;;;10.12;50.80;98516.28;3373188;29;20037;-70
2022/01/16 01:40:16;;;;;;;1.30;0.90;;;;;;;10.25;49.69;98521.50;3375882;29;20476;-71
2022/01/16 01:42:06;;;;;;;2.35;0.80;;;;;;;10.26;49.36;98529.25;3376173;29;20045;-71
2022/01/16 01:51:03;;;;;;;2.38;1.08;;;;;;;10.48;48.82;98518.22;3375813;29;20043;-71
2022/01/16 01:52:07;;;;;;;1.38;0.88;;;;;;;10.76;48.00;98516.81;3375403;29;20049;-71
2022/01/16 01:53:51;;;;;;;2.22;1.02;;;;;;;10.78;47.55;98531.56;3375598;29;20053;-71
2022/01/16 01:55:32;;;;;;;0.75;0.75;;;;;;;10.81;47.50;98536.44;3362021;29;20532;-71
2022/01/16 01:57:12;;;;;;;1.40;0.85;;;;;;;10.88;47.07;98541.69;3372915;29;20041;-70
2022/01/16 01:58:56;;;;;;;1.98;0.90;;;;;;;11.01;46.62;98538.03;3375933;29;20048;-70
2022/01/16 02:00:38;;;;;;;6.00;1.50;;;;;;;11.18;46.28;98557.72;3376086;29;20044;-71
2022/01/16 02:02:19;;;;;;;1.95;1.10;;;;;;;11.34;45.80;98559.72;3375732;29;20048;-70
2022/01/16 02:03:59;;;;;;;2.72;1.02;;;;;;;11.46;45.37;98561.59;3375425;29;20041;-70
2022/01/16 02:05:42;;;;;;;2.08;1.25;;;;;;;11.55;44.91;98573.59;3375698;29;20079;-70
2022/01/16 02:07:22;;;;;;;1.73;1.15;;;;;;;11.56;44.45;98588.53;3375744;29;20045;-70
2022/01/16 02:09:06;;;;;;;2.72;0.98;;;;;;;11.54;44.29;98583.47;3376082;29;20048;-71
2022/01/16 02:10:46;;;;;;;1.15;0.90;;;;;;;11.62;44.33;98590.31;3375682;29;20044;-72
2022/01/16 02:12:29;;;;;;;1.20;0.73;;;;;;;11.71;44.01;98578.25;3375735;29;20036;-70
2022/01/16 02:14:44;;;;;;;3.25;1.13;;;;;;;11.76;43.68;98583.72;3375594;29;20044;-71
2022/01/16 02:28:35;;;;;;;1.30;0.90;;;;;;;11.77;42.37;98443.06;3375565;29;20045;-70
2022/01/16 02:35:29;;;;;;;1.10;0.82;;;;;;;11.89;41.78;98467.13;3388436;29;20051;-70
2022/01/16 02:37:13;;;;;;;1.52;1.25;;;;;;;11.86;41.90;98504.94;3388353;29;20047;-71
2022/01/16 02:39:06;;;;;;;1.00;0.73;;;;;;;11.79;41.27;98543.22;3388555;29;20084;-70
2022/01/16 02:40:53;;;;;;;1.38;0.90;;;;;;;11.73;41.81;98567.38;3388606;29;20047;-71
2022/01/16 02:42:38;;;;;;;1.33;1.00;;;;;;;11.63;41.39;98599.13;3388425;29;20040;-71
2022/01/16 02:46:36;;;;;;;1.05;0.85;;;;;;;11.41;41.21;98582.81;3388334;29;20520;-70
2022/01/16 02:48:10;;;;;;;1.73;0.80;;;;;;;11.18;41.16;98543.53;3388155;29;20047;-70
2022/01/16 02:49:51;;;;;;;3.05;0.93;;;;;;;10.90;41.11;98553.75;3388491;29;20464;-70
2022/01/16 02:51:32;;;;;;;4.40;1.05;;;;;;;10.65;41.92;98564.50;3388478;29;20511;-71
2022/01/16 02:53:13;;;;;;;2.60;1.08;;;;;;;10.45;41.92;98586.06;3388387;29;20135;-70
2022/01/16 02:54:55;;;;;;;1.52;1.00;;;;;;;10.31;41.94;98605.03;3374436;29;20111;-71
2022/01/16 02:56:38;;;;;;;2.25;0.70;;;;;;;10.16;41.78;98592.03;3385847;29;20464;-71
2022/01/16 02:58:19;;;;;;;4.20;1.00;;;;;;;10.00;42.15;98556.94;3388540;29;20139;-72
2022/01/16 02:59:59;;;;;;;5.10;0.93;;;;;;;9.97;43.35;98541.41;3388341;29;20392;-71
2022/01/16 03:01:41;;;;;;;1.50;0.80;;;;;;;10.08;44.30;98557.72;3388511;29;20040;-71
2022/01/16 03:03:25;;;;;;;1.30;0.83;;;;;;;10.24;44.86;98583.75;3388529;29;20036;-71
2022/01/16 03:05:06;;;;;;;2.17;0.93;;;;;;;10.35;44.04;98585.75;3390786;29;20653;-70
2022/01/16 03:06:46;;;;;;;1.27;0.80;;;;;;;10.41;44.13;98579.53;3390473;29;20127;-70
2022/01/16 03:08:27;;;;;;;1.30;0.90;;;;;;;10.43;43.27;98598.78;3391032;29;20036;-70
2022/01/16 03:12:01;;;;;;;1.63;1.23;;;;;;;10.19;42.25;98613.69;3390757;29;20044;-70
2022/01/16 03:13:47;;;;;;;1.48;1.02;;;;;;;9.96;42.06;98606.31;3390762;29;20043;-71
2022/01/16 03:15:27;;;;;;;1.67;1.00;;;;;;;9.81;42.38;98595.22;3383569;29;20048;-71
2022/01/16 03:17:10;;;;;;;1.70;1.23;;;;;;;9.69;42.39;98602.25;3390766;29;20523;-70
2022/01/16 03:22:49;;;;;;;1.27;1.17;;;;;;;9.40;42.94;98615.13;3390668;29;20068;-72
2022/01/16 03:24:33;;;;;;;2.10;1.20;;;;;;;9.30;42.79;98630.72;3376673;29;20051;-72
2022/01/16 03:26:14;;;;;;;1.27;0.80;;;;;;;9.18;42.94;98641.19;3388107;29;20052;-72
2022/01/16 03:27:54;;;;;;;1.25;0.95;;;;;;;9.02;43.02;98645.13;3390956;29;20052;-72
2022/01/16 03:29:36;;;;;;;2.42;1.20;;;;;;;8.87;42.91;98637.41;3390534;29;20647;-72
2022/01/16 03:31:16;;;;;;;1.42;0.95;;;;;;;8.70;43.15;98642.38;3390491;29;20051;-71
2022/01/16 03:32:57;;;;;;;1.95;1.23;;;;;;;8.50;42.99;98636.28;3391758;29;20159;-70
2022/01/16 03:34:38;;;;;;;2.25;1.30;;;;;;;8.35;43.23;98633.00;3398563;29;20136;-70
2022/01/16 03:36:20;;;;;;;1.73;1.17;;;;;;;8.19;43.30;98632.41;3399295;29;20048;-71
2022/01/16 03:38:01;;;;;;;1.13;0.95;;;;;;;8.03;43.45;98636.31;3396866;29;20044;-71
2022/01/16 03:39:41;;;;;;;2.38;1.48;;;;;;;7.89;43.56;98647.91;3390402;29;20040;-71
2022/01/16 03:41:26;;;;;;;1.20;0.98;;;;;;;7.79;43.80;98666.06;3390496;29;20039;-70
2022/01/16 03:43:14;;;;;;;1.30;0.90;;;;;;;7.69;43.88;98671.75;3390356;29;20076;-71
2022/01/16 03:44:54;;;;;;;1.85;1.08;;;;;;;7.61;44.19;98669.28;3390610;29;20055;-71
2022/01/16 03:46:41;;;;;;;2.10;1.27;;;;;;;7.58;44.40;98669.69;3390343;29;20048;-70
2022/01/16 03:48:22;;;;;;;1.17;0.85;;;;;;;7.56;44.62;98669.91;3390391;29;20086;-72
2022/01/16 03:50:04;;;;;;;1.15;0.93;;;;;;;7.56;45.06;98671.72;3390431;29;20044;-72
2022/01/16 03:51:46;;;;;;;1.08;0.82;;;;;;;7.52;44.99;98670.50;3390214;29;20044;-72
2022/01/16 03:53:27;;;;;;;1.38;0.90;;;;;;;7.47;45.21;98673.75;3390376;29;20048;-72
2022/01/16 03:55:08;;;;;;;1.60;0.80;;;;;;;7.64;47.71;98663.59;3390352;29;20044;-72
2022/01/16 03:56:49;;;;;;;0.65;0.65;;;;;;;7.84;48.12;98666.28;3390408;29;20203;-73
2022/01/16 03:58:29;;;;;;;1.15;0.85;;;;;;;8.00;47.33;98678.31;3390242;29;20109;-72
2022/01/16 04:00:11;;;;;;;2.15;1.08;;;;;;;8.04;46.41;98668.97;3390355;29;20666;-72
2022/01/16 04:01:51;;;;;;;1.77;1.02;;;;;;;8.00;45.82;98678.31;3390577;29;20492;-72
2022/01/16 04:03:32;;;;;;;2.83;0.77;;;;;;;7.89;45.55;98686.91;3390348;29;20040;-71
2022/01/16 04:05:13;;;;;;;0.85;0.85;;;;;;;7.83;45.62;98688.53;3390016;29;20051;-71
2022/01/16 04:06:54;;;;;;;2.35;0.85;;;;;;;7.80;45.34;98683.63;3390288;29;20127;-69
2022/01/16 04:08:34;;;;;;;2.63;0.90;;;;;;;7.74;45.47;98690.53;3390175;29;20480;-70
2022/01/16 04:10:15;;;;;;;2.03;1.30;;;;;;;7.71;45.49;98690.94;3376165;29;20041;-70
2022/01/16 04:11:57;;;;;;;1.23;0.82;;;;;;;7.76;46.26;98688.50;3387578;29;20048;-71
2022/01/16 04:13:47;;;;;;;2.72;1.10;;;;;;;7.81;46.38;98694.03;3389868;29;20070;-71
2022/01/16 04:15:34;;;;;;;0.73;0.73;;;;;;;7.77;45.97;98679.53;3389745;29;20067;-71
2022/01/16 04:17:19;;;;;;;1.23;1.00;;;;;;;7.72;47.23;98681.97;3389954;29;20040;-70
2022/01/16 04:19:00;;;;;;;1.13;0.90;;;;;;;7.76;47.34;98693.81;3390101;29;20043;-71
2022/01/16 04:20:41;;;;;;;3.65;1.73;;;;;;;7.80;46.95;98699.53;3389869;29;20052;-71
2022/01/16 04:22:22;;;;;;;1.45;0.75;;;;;;;7.79;46.87;98698.69;3390204;29;20059;-69
2022/01/16 04:24:03;;;;;;;0.98;0.90;;;;;;;7.81;46.84;98701.16;3389855;29;20063;-71
2022/01/16 04:25:43;;;;;;;0.85;0.80;;;;;;;7.88;47.71;98707.31;3396420;29;20044;-70
2022/01/16 04:27:24;;;;;;;2.30;0.80;;;;;;;8.05;48.68;98703.25;3398431;29;20092;-70
2022/01/16 04:29:05;;;;;;;1.00;0.82;;;;;;;8.17;47.49;98710.59;3398184;29;20044;-71
2022/01/16 04:30:45;;;;;;;1.45;0.90;;;;;;;8.14;46.59;98703.88;3390101;29;20503;-71
2022/01/16 04:32:26;;;;;;;1.05;0.90;;;;;;;7.99;46.11;98716.50;3389495;29;20048;-70
2022/01/16 04:34:07;;;;;;;1.75;0.80;;;;;;;7.90;45.86;98718.53;3389842;29;20055;-70
2022/01/16 04:35:47;;;;;;;1.00;1.00;;;;;;;7.82;45.58;98724.84;3389623;29;20465;-70
2022/01/16 04:37:28;;;;;;;1.98;0.95;;;;;;;7.75;45.64;98713.41;3389912;29;20040;-70
2022/01/16 04:39:14;;;;;;;0.85;0.73;;;;;;;7.70;45.57;98715.84;3389718;29;20894;-70
2022/01/16 04:44:53;;;;;;;2.47;1.23;;;;;;;7.40;45.68;98720.63;3389672;29;20078;-69
2022/01/16 04:46:34;;;;;;;1.42;0.82;;;;;;;7.45;46.92;98717.38;3389482;29;20482;-71
2022/01/16 04:48:15;;;;;;;1.40;0.50;;;;;;;7.53;47.16;98715.38;3389718;29;20048;-71
2022/01/16 04:49:56;;;;;;;1.92;0.50;;;;;;;7.74;47.79;98722.34;3389539;29;20131;-70
2022/01/16 04:51:36;;;;;;;1.13;1.02;;;;;;;8.03;48.06;98718.56;3389480;29;20051;-71
2022/01/16 04:53:17;;;;;;;1.63;1.08;;;;;;;8.33;47.47;98730.63;3389436;29;20092;-70
2022/01/16 04:54:58;;;;;;;2.08;1.30;;;;;;;8.38;46.20;98717.56;3389589;29;20112;-71
2022/01/16 04:56:38;;;;;;;1.70;0.90;;;;;;;8.37;45.36;98729.22;3389360;29;20036;-72
2022/01/16 04:58:21;;;;;;;1.70;1.10;;;;;;;8.25;45.05;98734.28;3389288;29;20063;-71
2022/01/16 05:00:08;;;;;;;1.35;0.82;;;;;;;8.14;45.02;98732.25;3375432;29;20504;-71
2022/01/16 05:01:49;;;;;;;1.10;0.75;;;;;;;8.10;45.65;98742.44;3387733;29;20048;-71
2022/01/16 05:03:30;;;;;;;1.38;0.90;;;;;;;8.19;46.98;98740.44;3389415;29;20055;-71
2022/01/16 05:05:11;;;;;;;6.65;0.80;;;;;;;8.37;47.07;98743.28;3389391;29;20040;-70
2022/01/16 05:06:52;;;;;;;1.65;0.57;;;;;;;8.46;45.70;98743.94;3389218;29;20043;-71
2022/01/16 05:08:33;;;;;;;2.47;0.70;;;;;;;8.42;44.80;98750.69;3389892;29;20044;-71
2022/01/16 05:10:13;;;;;;;0.60;0.60;;;;;;;8.40;45.59;98752.72;3389350;29;20043;-70
2022/01/16 05:11:57;;;;;;;0.93;0.93;;;;;;;8.39;45.39;98753.69;3389351;29;20103;-71
2022/01/16 05:17:17;;;;;;;1.98;0.98;;;;;;;8.50;45.18;98774.38;3397740;29;20113;-71
2022/01/16 05:18:58;;;;;;;0.82;0.77;;;;;;;8.52;45.13;98769.69;3393363;29;20519;-74
2022/01/16 05:20:39;;;;;;;3.45;1.10;;;;;;;8.48;44.28;98771.09;3375446;29;20048;-74
2022/01/16 05:22:19;;;;;;;1.25;0.75;;;;;;;8.39;44.17;98781.13;3386458;29;20047;-75
2022/01/16 05:24:03;;;;;;;3.10;1.27;;;;;;;8.29;44.14;98775.34;3389143;29;21005;-73
2022/01/16 05:25:43;;;;;;;0.65;0.52;;;;;;;8.14;43.82;98777.38;3389182;29;20040;-74
2022/01/16 05:27:24;;;;;;;1.02;0.85;;;;;;;8.00;44.01;98792.41;3388405;29;20417;-75
2022/01/16 05:29:05;;;;;;;7.80;1.73;;;;;;;7.86;44.05;98789.72;3389552;29;20107;-76
2022/01/16 05:30:46;;;;;;;1.48;1.00;;;;;;;7.73;44.16;98796.84;3389020;29;20412;-76
2022/01/16 05:32:27;;;;;;;0.63;0.63;;;;;;;7.60;44.16;98800.25;3389011;29;20143;-76
2022/01/16 05:34:07;;;;;;;0.60;0.50;;;;;;;7.46;44.12;98803.84;3389138;29;20043;-75
2022/01/16 05:35:48;;;;;;;1.17;0.82;;;;;;;7.31;44.15;98802.16;3389089;29;20495;-76
2022/01/16 05:37:29;;;;;;;1.33;0.80;;;;;;;7.20;44.27;98795.56;3389034;29;20428;-75
2022/01/16 05:39:11;;;;;;;0.98;0.60;;;;;;;7.18;44.36;98812.66;3388773;29;20056;-72
2022/01/16 05:40:52;;;;;;;1.50;0.80;;;;;;;7.18;44.60;98816.13;3389142;29;20051;-74
2022/01/16 05:42:32;;;;;;;0.60;0.60;;;;;;;7.21;44.62;98813.09;3389127;29;20496;-73
2022/01/16 05:44:15;;;;;;;1.42;0.88;;;;;;;7.26;45.31;98812.50;3396781;29;20044;-74
2022/01/16 05:45:56;;;;;;;0.95;0.70;;;;;;;7.29;45.40;98814.78;3391671;29;20138;-72
2022/01/16 05:47:37;;;;;;;1.05;0.52;;;;;;;7.28;45.12;98815.78;3389055;29;20500;-74
2022/01/16 05:49:18;;;;;;;1.77;0.85;;;;;;;7.26;44.86;98827.59;3389876;29;20043;-73
2022/01/16 05:50:58;;;;;;;1.33;0.82;;;;;;;7.26;44.97;98824.94;3390887;29;20044;-76
2022/01/16 05:52:40;;;;;;;0.80;0.80;;;;;;;7.23;45.26;98828.81;3388714;29;20040;-75
2022/01/16 05:54:20;;;;;;;1.13;0.80;;;;;;;7.19;44.89;98835.50;3389009;29;20043;-75
2022/01/16 05:56:01;;;;;;;0.90;0.60;;;;;;;7.11;45.05;98836.47;3388907;29;20135;-74
2022/01/16 05:57:43;;;;;;;1.98;0.80;;;;;;;7.07;44.94;98832.56;3388632;29;20051;-75
2022/01/16 05:59:24;;;;;;;2.63;0.93;;;;;;;7.08;44.94;98836.03;3389163;29;20111;-75
2022/01/16 06:01:04;;;;;;;0.60;0.60;;;;;;;7.11;45.24;98843.59;3388999;29;20040;-75
2022/01/16 06:02:45;;;;;;;1.05;0.90;;;;;;;7.11;45.38;98836.47;3388882;29;20496;-75
2022/01/16 06:04:26;;;;;;;1.20;0.70;;;;;;;7.09;45.39;98840.31;3388771;29;20511;-75
2022/01/16 06:06:06;;;;;;;1.38;0.98;;;;;;;7.03;45.45;98846.41;3389063;29;20095;-74
2022/01/16 06:07:53;;;;;;;0.80;0.68;;;;;;;6.93;45.32;98839.59;3388974;29;20036;-75
2022/01/16 06:09:34;;;;;;;0.80;0.80;;;;;;;6.86;45.18;98835.25;3388964;29;20047;-75
2022/01/16 06:11:15;;;;;;;1.25;0.82;;;;;;;6.82;45.25;98850.72;3374910;29;20044;-75
2022/01/16 06:12:56;;;;;;;0.98;0.77;;;;;;;6.81;45.39;98838.47;3386161;29;20495;-72
2022/01/16 06:14:37;;;;;;;2.35;0.98;;;;;;;6.84;45.32;98830.16;3389020;29;20043;-74
2022/01/16 06:16:18;;;;;;;3.53;1.00;;;;;;;6.87;45.50;98843.03;3388803;29;20052;-75
2022/01/16 06:18:00;;;;;;;0.75;0.70;;;;;;;6.88;45.47;98843.81;3389058;29;20235;-74
2022/01/16 06:19:41;;;;;;;0.52;0.50;;;;;;;6.88;45.56;98834.06;3390462;29;20071;-74
2022/01/16 06:21:21;;;;;;;1.45;0.70;;;;;;;6.93;45.53;98839.59;3390597;29;20048;-73
2022/01/16 06:23:02;;;;;;;1.60;0.75;;;;;;;6.96;45.50;98841.84;3390204;29;20076;-73
2022/01/16 06:24:43;;;;;;;0.88;0.88;;;;;;;6.94;45.44;98841.25;3390315;29;20120;-74
2022/01/16 06:26:23;;;;;;;1.25;0.60;;;;;;;6.89;44.99;98840.16;3390539;29;20047;-74
2022/01/16 06:28:04;;;;;;;0.65;0.55;;;;;;;6.81;45.43;98838.47;3388735;29;20055;-74
2022/01/16 06:29:45;;;;;;;0.90;0.90;;;;;;;6.72;45.37;98834.34;3388861;29;20052;-75
2022/01/16 06:31:25;;;;;;;2.38;0.75;;;;;;;6.62;45.49;98836.47;3377141;29;20066;-75
2022/01/16 06:33:09;;;;;;;1.13;0.70;;;;;;;6.55;45.51;98834.56;3398804;29;20147;-74
2022/01/16 06:34:50;;;;;;;1.52;0.80;;;;;;;6.50;45.64;98826.38;3401854;29;20075;-74
2022/01/16 06:36:30;;;;;;;2.28;0.90;;;;;;;6.50;45.88;98836.16;3402049;29;20043;-74
2022/01/16 06:38:12;;;;;;;1.38;0.93;;;;;;;6.48;46.06;98844.31;3402458;29;20051;-75
2022/01/16 06:39:52;;;;;;;0.85;0.77;;;;;;;6.47;46.09;98845.28;3399364;29;20411;-75
2022/01/16 06:41:34;;;;;;;5.85;1.25;;;;;;;6.45;46.09;98842.00;3407866;29;20032;-74
2022/01/16 06:43:14;;;;;;;0.88;0.70;;;;;;;6.46;46.18;98851.59;3410755;29;20074;-75
2022/01/16 06:44:55;;;;;;;1.40;1.30;;;;;;;6.44;46.37;98845.69;3405110;29;20047;-76
2022/01/16 06:46:36;;;;;;;2.70;0.90;;;;;;;6.46;46.36;98851.59;3404811;29;20055;-74
2022/01/16 06:48:16;;;;;;;1.55;0.90;;;;;;;6.49;46.27;98848.56;3404664;29;20083;-74
2022/01/16 06:49:57;;;;;;;0.85;0.70;;;;;;;6.50;46.30;98850.22;3412478;29;20043;-75
2022/01/16 06:51:38;;;;;;;1.33;0.88;;;;;;;6.49;46.50;98850.41;3411106;29;20032;-75
2022/01/16 06:53:19;;;;;;;1.52;1.10;;;;;;;6.48;46.48;98859.34;3401021;29;20486;-74
2022/01/16 06:54:59;;;;;;;1.33;0.70;;;;;;;6.44;46.41;98853.63;3399164;29;20048;-74
2022/01/16 06:56:40;;;;;;;3.22;0.70;;;;;;;6.40;46.51;98857.66;3397845;29;20133;-74
2022/01/16 06:58:21;;;;;;;2.15;0.80;;;;;;;6.37;46.43;98858.00;3399405;29;20051;-73
2022/01/16 07:00:08;;;;;;;0.80;0.60;;;;;;;6.36;46.90;98856.38;3400425;29;20051;-75
2022/01/16 07:01:49;;;;;;;3.85;0.90;;;;;;;6.36;46.72;98855.56;3397841;29;20063;-73
2022/01/16 07:03:30;;;;;;;1.17;0.90;;;;;;;6.39;46.55;98858.66;3382220;29;20472;-74
2022/01/16 07:05:11;;;;;;;1.05;0.70;;;;;;;6.46;46.36;98864.03;3376112;29;20064;-72
2022/01/16 07:06:52;;;;;;;1.63;0.90;;;;;;;6.50;46.53;98863.44;3389102;29;20052;-75
2022/01/16 07:08:32;;;;;;;1.33;0.80;;;;;;;6.59;46.56;98866.81;3391651;29;20483;-74
2022/01/16 07:10:13;;;;;;;1.02;0.90;;;;;;;6.63;46.56;98867.22;3384733;29;20451;-74
2022/01/16 07:11:55;;;;;;;8.05;1.02;;;;;;;6.63;46.51;98867.22;3401060;29;20032;-73
2022/01/16 07:13:36;;;;;;;1.20;1.05;;;;;;;6.68;46.36;98868.28;3389810;29;20066;-75
2022/01/16 07:15:17;;;;;;;0.90;0.80;;;;;;;6.65;46.22;98871.31;3388154;29;20055;-75
2022/01/16 07:16:58;;;;;;;1.25;0.90;;;;;;;6.62;46.10;98870.91;3402107;29;20071;-74
2022/01/16 07:18:38;;;;;;;0.95;0.70;;;;;;;6.56;46.25;98861.88;3404840;29;20589;-76
2022/01/16 07:20:19;;;;;;;0.70;0.60;;;;;;;6.55;46.08;98863.69;3404208;29;20860;-72
2022/01/16 07:22:00;;;;;;;1.13;0.82;;;;;;;6.51;46.02;98867.75;3401466;29;20040;-74
2022/01/16 07:23:45;;;;;;;2.35;0.80;;;;;;;6.47;45.88;98869.13;3376957;29;20045;-74
2022/01/16 07:25:25;;;;;;;1.92;0.93;;;;;;;6.43;46.15;98872.31;3375349;29;20052;-74
2022/01/16 07:27:06;;;;;;;1.63;0.63;;;;;;;6.38;46.10;98870.25;3388993;29;20036;-74
2022/01/16 07:28:47;;;;;;;1.38;0.70;;;;;;;6.35;46.33;98875.94;3390468;29;20040;-73
2022/01/16 07:30:28;;;;;;;3.83;0.82;;;;;;;6.32;46.49;98871.84;3391150;29;20040;-74
2022/01/16 07:32:10;;;;;;;;;;;;;;;6.44;46.49;98868.69;3392267;29;20055;-73
2022/01/16 07:33:51;;;;;;;0.85;0.63;;;;;;;6.37;46.24;98876.53;3403734;29;20387;-74
2022/01/16 07:35:32;;;;;;;1.33;1.23;;;;;;;6.35;46.75;98873.28;3389690;29;20134;-74
2022/01/16 07:37:13;;;;;;;0.70;0.70;;;;;;;6.36;46.64;98880.22;3391830;29;20072;-71
2022/01/16 07:38:53;;;;;;;1.90;0.80;;;;;;;6.33;46.47;98891.19;3390491;29;20051;-76
2022/01/16 07:40:35;;;;;;;1.42;0.80;;;;;;;6.28;46.86;98882.97;3390936;29;20130;-72
2022/01/16 07:42:15;;;;;;;0.60;0.60;;;;;;;6.27;46.95;98889.25;3398379;29;20051;-72
2022/01/16 07:43:56;;;;;;;1.27;0.90;;;;;;;6.23;47.24;98890.66;3390473;29;20063;-72
2022/01/16 07:45:37;;;;;;;5.75;0.85;;;;;;;6.21;47.36;98895.31;3390326;29;20044;-73
2022/01/16 07:47:18;;;;;;;0.82;0.70;;;;;;;6.21;47.51;98895.31;3389380;29;20044;-74
2022/01/16 07:48:59;;;;;;;0.68;0.50;;;;;;;6.22;47.73;98899.56;3386904;29;20183;-73
2022/01/16 07:50:40;;;;;;;2.05;0.70;;;;;;;6.28;47.86;98898.84;3399849;29;20428;-73
2022/01/16 07:52:20;;;;;;;1.40;0.70;;;;;;;6.29;47.81;98897.84;3396419;29;20486;-76
2022/01/16 07:54:01;;;;;;;0.70;0.70;;;;;;;6.29;47.96;98893.34;3403299;29;20055;-77
2022/01/16 07:55:42;;;;;;;1.40;1.05;;;;;;;6.40;49.31;98896.53;3403051;29;20558;-75
2022/01/16 07:57:22;;;;;;;2.35;0.70;;;;;;;6.52;50.62;98893.19;3403382;29;20044;-76
2022/01/16 07:59:03;;;;;;;2.40;0.80;;;;;;;6.60;49.83;98896.75;3403505;29;20044;-74
2022/01/16 08:00:44;;;;;;;1.27;0.90;;;;;;;6.69;49.62;98898.28;3403284;29;20138;-75
2022/01/16 08:02:24;;;;;;;1.27;0.93;;;;;;;6.72;49.35;98898.69;3401675;29;20044;-74
2022/01/16 08:04:05;;;;;;;1.65;0.47;;;;;;;6.74;48.98;98896.69;3390858;29;20044;-72
2022/01/16 08:05:46;;;;;;;0.88;0.57;;;;;;;6.78;49.25;98892.63;3390213;29;20055;-74
2022/01/16 08:07:26;;;;;;;1.08;0.60;;;;;;;6.80;49.58;98889.81;3377897;29;21661;-73
2022/01/16 08:09:08;;;;;;;2.78;0.80;;;;;;;6.94;54.14;98896.88;3400470;29;20047;-74
2022/01/16 08:10:48;;;;;;;1.90;0.80;;;;;;;7.18;58.44;98903.59;3393307;29;20060;-75
2022/01/16 08:12:29;;;;;;;2.15;0.70;;;;;;;7.38;58.29;98909.03;3390927;29;20548;-73
2022/01/16 08:14:10;;;;;;;0.68;0.57;;;;;;;7.52;55.65;98915.25;3375859;29;20048;-74
2022/01/16 08:15:50;;;;;;;3.47;1.30;;;;;;;7.63;54.14;98916.53;3387358;29;20043;-76
2022/01/16 08:17:31;;;;;;;0.68;0.68;;;;;;;7.70;52.78;98917.41;3390435;29;20050;-74
2022/01/16 08:19:12;;;;;;;0.73;0.50;;;;;;;7.76;52.77;98919.25;3389844;29;20048;-73
2022/01/16 08:20:53;;;;;;;1.33;0.60;;;;;;;7.81;52.73;98919.50;3389997;29;20046;-74
2022/01/16 08:22:34;;;;;;;0.57;0.57;;;;;;;7.77;51.67;98920.06;3392516;29;20487;-73
2022/01/16 08:24:14;;;;;;;2.03;0.75;;;;;;;7.69;50.78;98923.69;3402893;29;20075;-75
2022/01/16 08:25:55;;;;;;;1.73;0.60;;;;;;;7.77;53.57;98928.88;3403032;29;20043;-74
2022/01/16 08:27:36;;;;;;;1.23;0.70;;;;;;;7.97;56.19;98914.88;3403063;29;20090;-73
2022/01/16 08:29:17;;;;;;;8.70;0.80;;;;;;;8.23;56.95;98917.63;3402766;29;20047;-73
2022/01/16 08:30:58;;;;;;;1.90;0.90;;;;;;;8.50;56.79;98917.78;3401743;29;20058;-76
2022/01/16 08:32:39;;;;;;;0.93;0.60;;;;;;;8.68;55.02;98910.06;3391043;29;20508;-76
2022/01/16 08:34:20;;;;;;;0.75;0.75;;;;;;;8.80;54.49;98922.75;3403083;29;20051;-75
2022/01/16 08:36:00;;;;;;;1.70;0.93;;;;;;;8.85;54.05;98921.09;3403037;29;20135;-74
2022/01/16 08:37:41;;;;;;;3.10;1.23;;;;;;;8.83;51.74;98912.53;3388704;29;20054;-75
2022/01/16 08:39:23;;;;;;;5.07;0.93;;;;;;;8.76;50.67;98911.72;3400232;29;20611;-75
2022/01/16 08:41:06;;;;;;;2.42;0.82;;;;;;;8.65;50.09;98912.31;3402304;29;20138;-74
2022/01/16 08:42:47;;;;;;;2.83;0.90;;;;;;;8.50;49.60;98917.78;3398506;29;20042;-72
2022/01/16 08:44:27;;;;;;;0.68;0.68;;;;;;;8.33;49.48;98908.50;3390587;29;20138;-74
2022/01/16 08:46:08;;;;;;;3.35;0.65;;;;;;;8.14;49.11;98913.53;3374953;29;20099;-74
2022/01/16 08:47:49;;;;;;;0.70;0.70;;;;;;;8.03;48.83;98911.47;3386633;29;20071;-73
2022/01/16 08:49:29;;;;;;;1.42;0.80;;;;;;;7.94;48.59;98918.75;3378332;29;20044;-73
2022/01/16 08:51:13;;;;;;;0.82;0.82;;;;;;;7.87;48.58;98925.84;3394054;29;20087;-72